createdAt,value
2018-07-25T00:00:29.015Z,0.00
2018-07-25T00:01:39.390Z,0.00
2018-07-25T00:02:28.935Z,0.00
2018-07-25T00:03:28.922Z,0.00
2018-07-25T00:04:28.866Z,0.00
2018-07-25T00:05:28.837Z,0.00
2018-07-25T00:06:28.801Z,0.00
2018-07-25T00:07:28.765Z,0.00
2018-07-25T00:08:28.755Z,0.00
2018-07-25T00:09:28.690Z,0.00
2018-07-25T00:10:28.655Z,0.00
2018-07-25T00:11:28.624Z,0.00
2018-07-25T00:12:28.589Z,0.00
2018-07-25T00:13:28.548Z,0.00
2018-07-25T00:14:28.538Z,0.00
2018-07-25T00:15:28.477Z,0.00
2018-07-25T00:16:28.439Z,0.00
2018-07-25T00:17:28.413Z,0.00
2018-07-25T00:18:28.379Z,0.00
2018-07-25T00:19:28.366Z,0.00
2018-07-25T00:20:28.316Z,0.00
2018-07-25T00:21:28.321Z,0.00
2018-07-25T00:22:28.231Z,0.00
2018-07-25T00:23:28.192Z,0.00
2018-07-25T00:24:28.185Z,0.00
2018-07-25T00:25:28.132Z,0.00
2018-07-25T00:26:28.097Z,0.00
2018-07-25T00:27:28.056Z,0.00
2018-07-25T00:28:28.026Z,0.00
2018-07-25T00:29:27.993Z,0.00
2018-07-25T00:30:27.977Z,0.00
2018-07-25T00:31:27.919Z,0.00
2018-07-25T00:32:27.886Z,0.00
2018-07-25T00:33:27.846Z,0.00
2018-07-25T00:34:27.807Z,0.00
2018-07-25T00:35:27.795Z,0.00
2018-07-25T00:36:27.742Z,0.00
2018-07-25T00:37:27.706Z,0.00
2018-07-25T00:38:27.670Z,0.00
2018-07-25T00:39:27.639Z,0.00
2018-07-25T00:40:27.631Z,0.00
2018-07-25T00:41:27.561Z,0.00
2018-07-25T00:42:27.522Z,0.00
2018-07-25T00:43:27.498Z,0.00
2018-07-25T00:44:27.460Z,0.00
2018-07-25T00:45:27.422Z,0.00
2018-07-25T00:46:27.409Z,0.00
2018-07-25T00:47:27.349Z,0.00
2018-07-25T00:48:27.312Z,0.00
2018-07-25T00:49:27.283Z,0.00
2018-07-25T00:50:27.280Z,0.00
2018-07-25T00:51:27.212Z,0.00
2018-07-25T00:52:27.177Z,0.00
2018-07-25T00:53:27.136Z,0.00
2018-07-25T00:54:27.102Z,0.00
2018-07-25T00:55:27.139Z,0.00
2018-07-25T00:56:27.057Z,0.00
2018-07-25T00:57:27.004Z,0.00
2018-07-25T00:58:26.968Z,0.00
2018-07-25T00:59:26.923Z,0.00
2018-07-25T01:00:26.889Z,0.00
2018-07-25T01:01:26.890Z,0.00
2018-07-25T01:02:26.826Z,0.00
2018-07-25T01:03:26.792Z,0.00
2018-07-25T01:04:26.757Z,0.00
2018-07-25T01:05:26.719Z,0.00
2018-07-25T01:06:26.678Z,0.00
2018-07-25T01:07:26.672Z,0.00
2018-07-25T01:08:26.615Z,0.00
2018-07-25T01:09:26.570Z,0.00
2018-07-25T01:10:26.544Z,0.00
2018-07-25T01:11:26.500Z,0.00
2018-07-25T01:12:26.495Z,0.00
2018-07-25T01:13:26.439Z,0.00
2018-07-25T01:14:26.405Z,0.00
2018-07-25T01:15:26.362Z,0.00
2018-07-25T01:16:26.326Z,0.00
2018-07-25T01:17:26.328Z,0.00
2018-07-25T01:18:26.263Z,0.00
2018-07-25T01:19:26.232Z,0.00
2018-07-25T01:20:26.191Z,0.00
2018-07-25T01:21:26.146Z,0.00
2018-07-25T01:22:26.115Z,0.00
2018-07-25T01:23:26.100Z,0.00
2018-07-25T01:24:26.040Z,0.00
2018-07-25T01:25:26.023Z,0.00
2018-07-25T01:26:25.976Z,0.00
2018-07-25T01:27:25.941Z,0.00
2018-07-25T01:28:25.921Z,0.00
2018-07-25T01:29:25.867Z,0.00
2018-07-25T01:30:25.831Z,0.00
2018-07-25T01:31:25.800Z,0.00
2018-07-25T01:32:25.765Z,0.00
2018-07-25T01:33:25.747Z,0.00
2018-07-25T01:34:25.686Z,0.00
2018-07-25T01:35:25.648Z,0.00
2018-07-25T01:36:25.616Z,0.00
2018-07-25T01:37:25.588Z,0.00
2018-07-25T01:38:25.584Z,0.00
2018-07-25T01:39:25.518Z,0.00
2018-07-25T01:40:25.482Z,0.00
2018-07-25T01:41:25.438Z,0.00
2018-07-25T01:42:25.401Z,0.00
2018-07-25T01:43:25.367Z,0.00
2018-07-25T01:44:25.354Z,0.00
2018-07-25T01:45:25.302Z,0.00
2018-07-25T01:46:25.269Z,0.00
2018-07-25T01:47:25.224Z,0.00
2018-07-25T01:48:25.191Z,0.00
2018-07-25T01:49:25.181Z,0.00
2018-07-25T01:50:25.120Z,0.00
2018-07-25T01:51:25.086Z,0.00
2018-07-25T01:52:25.051Z,0.00
2018-07-25T01:53:25.010Z,0.00
2018-07-25T01:54:24.999Z,0.00
2018-07-25T01:55:24.937Z,0.00
2018-07-25T01:56:24.900Z,0.00
2018-07-25T01:57:24.873Z,0.00
2018-07-25T01:58:24.837Z,0.00
2018-07-25T01:59:24.826Z,0.00
2018-07-25T02:00:24.771Z,0.00
2018-07-25T02:01:24.729Z,0.00
2018-07-25T02:02:24.691Z,0.00
2018-07-25T02:03:24.656Z,0.00
2018-07-25T02:04:24.645Z,0.00
2018-07-25T02:05:24.581Z,0.00
2018-07-25T02:06:24.542Z,0.00
2018-07-25T02:07:24.506Z,0.00
2018-07-25T02:08:24.491Z,0.00
2018-07-25T02:09:24.447Z,0.00
2018-07-25T02:10:24.431Z,0.00
2018-07-25T02:11:24.373Z,0.00
2018-07-25T02:12:24.331Z,0.00
2018-07-25T02:13:24.293Z,0.00
2018-07-25T02:14:24.257Z,0.00
2018-07-25T02:15:24.250Z,0.00
2018-07-25T02:16:24.195Z,0.00
2018-07-25T02:17:24.152Z,0.00
2018-07-25T02:18:24.122Z,0.00
2018-07-25T02:19:24.106Z,0.00
2018-07-25T02:20:24.037Z,0.00
2018-07-25T02:21:24.032Z,0.00
2018-07-25T02:22:23.974Z,0.00
2018-07-25T02:23:23.940Z,0.00
2018-07-25T02:24:23.897Z,0.00
2018-07-25T02:25:23.859Z,0.00
2018-07-25T02:26:23.844Z,0.00
2018-07-25T02:27:23.790Z,0.00
2018-07-25T02:28:23.752Z,0.00
2018-07-25T02:29:23.721Z,0.00
2018-07-25T02:30:23.685Z,0.00
2018-07-25T02:31:23.672Z,0.00
2018-07-25T02:32:23.616Z,0.00
2018-07-25T02:33:23.568Z,0.00
2018-07-25T02:34:23.537Z,0.00
2018-07-25T02:35:23.502Z,0.00
2018-07-25T02:36:23.465Z,0.00
2018-07-25T02:37:23.447Z,0.00
2018-07-25T02:38:23.387Z,0.00
2018-07-25T02:39:23.353Z,0.00
2018-07-25T02:40:23.319Z,0.00
2018-07-25T02:41:23.284Z,0.00
2018-07-25T02:42:23.278Z,0.00
2018-07-25T02:43:23.213Z,0.00
2018-07-25T02:44:23.191Z,0.00
2018-07-25T02:45:23.135Z,0.00
2018-07-25T02:46:23.102Z,0.00
2018-07-25T02:47:23.090Z,0.00
2018-07-25T02:48:23.028Z,0.00
2018-07-25T02:49:22.998Z,0.00
2018-07-25T02:50:22.960Z,0.00
2018-07-25T02:51:22.920Z,0.00
2018-07-25T02:52:22.905Z,0.00
2018-07-25T02:53:22.849Z,0.00
2018-07-25T02:54:22.814Z,0.00
2018-07-25T02:55:22.775Z,0.00
2018-07-25T02:56:22.738Z,0.00
2018-07-25T02:57:32.501Z,0.00
2018-07-25T02:58:22.663Z,0.00
2018-07-25T02:59:22.631Z,0.00
2018-07-25T03:00:22.592Z,0.00
2018-07-25T03:01:22.557Z,4.00
2018-07-25T03:02:22.545Z,4.00
2018-07-25T03:03:22.477Z,0.00
2018-07-25T03:04:22.445Z,0.00
2018-07-25T03:05:22.415Z,4.00
2018-07-25T03:06:22.377Z,4.00
2018-07-25T03:07:22.358Z,4.00
2018-07-25T03:08:22.301Z,4.00
2018-07-25T03:09:22.262Z,4.00
2018-07-25T03:10:22.223Z,4.00
2018-07-25T03:11:22.192Z,4.00
2018-07-25T03:12:22.159Z,4.00
2018-07-25T03:13:22.141Z,8.00
2018-07-25T03:14:22.085Z,12.00
2018-07-25T03:15:22.047Z,12.00
2018-07-25T03:16:32.032Z,12.00
2018-07-25T03:17:21.977Z,16.00
2018-07-25T03:18:21.960Z,16.00
2018-07-25T03:19:21.893Z,20.00
2018-07-25T03:20:21.856Z,24.00
2018-07-25T03:21:21.829Z,24.00
2018-07-25T03:22:21.790Z,28.00
2018-07-25T03:23:21.784Z,32.00
2018-07-25T03:24:21.716Z,36.00
2018-07-25T03:25:21.675Z,40.00
2018-07-25T03:26:21.649Z,44.00
2018-07-25T03:27:21.601Z,52.00
2018-07-25T03:28:21.565Z,60.00
2018-07-25T03:29:21.554Z,64.00
2018-07-25T03:30:21.501Z,72.00
2018-07-25T03:31:21.464Z,80.00
2018-07-25T03:32:21.423Z,88.00
2018-07-25T03:33:21.378Z,100.00
2018-07-25T03:34:21.366Z,112.00
2018-07-25T03:35:21.316Z,120.00
2018-07-25T03:36:21.276Z,136.00
2018-07-25T03:37:21.257Z,148.00
2018-07-25T03:38:21.205Z,164.00
2018-07-25T03:39:21.182Z,180.00
2018-07-25T03:40:21.128Z,196.00
2018-07-25T03:41:21.101Z,212.00
2018-07-25T03:42:21.066Z,232.00
2018-07-25T03:43:21.027Z,252.00
2018-07-25T03:44:21.014Z,272.00
2018-07-25T03:45:20.944Z,292.00
2018-07-25T03:46:20.906Z,316.00
2018-07-25T03:47:20.866Z,336.00
2018-07-25T03:48:20.834Z,360.00
2018-07-25T03:49:20.805Z,388.00
2018-07-25T03:50:20.789Z,412.00
2018-07-25T03:51:20.725Z,444.00
2018-07-25T03:52:20.686Z,476.00
2018-07-25T03:53:20.656Z,508.00
2018-07-25T03:54:20.617Z,540.00
2018-07-25T03:55:20.606Z,580.00
2018-07-25T03:56:20.547Z,616.00
2018-07-25T03:57:20.501Z,652.00
2018-07-25T03:58:20.464Z,696.00
2018-07-25T03:59:20.428Z,736.00
2018-07-25T04:00:20.415Z,784.00
2018-07-25T04:01:20.359Z,828.00
2018-07-25T04:02:20.323Z,880.00
2018-07-25T04:03:20.294Z,932.00
2018-07-25T04:04:20.248Z,980.00
2018-07-25T04:05:20.207Z,1040.00
2018-07-25T04:06:20.202Z,1092.00
2018-07-25T04:07:20.143Z,1152.00
2018-07-25T04:08:20.138Z,1212.00
2018-07-25T04:09:20.064Z,1272.00
2018-07-25T04:10:20.031Z,1340.00
2018-07-25T04:11:20.012Z,1404.00
2018-07-25T04:12:19.951Z,1472.00
2018-07-25T04:13:19.925Z,1540.00
2018-07-25T04:14:19.886Z,1608.00
2018-07-25T04:15:19.849Z,1676.00
2018-07-25T04:16:19.846Z,1752.00
2018-07-25T04:17:19.775Z,1824.00
2018-07-25T04:18:19.741Z,1900.00
2018-07-25T04:19:19.696Z,1972.00
2018-07-25T04:20:19.660Z,2048.00
2018-07-25T04:21:19.634Z,2128.00
2018-07-25T04:22:19.619Z,2204.00
2018-07-25T04:23:19.552Z,2284.00
2018-07-25T04:24:19.513Z,2368.00
2018-07-25T04:25:19.490Z,2448.00
2018-07-25T04:26:19.449Z,2528.00
2018-07-25T04:27:19.446Z,2600.00
2018-07-25T04:28:19.374Z,2668.00
2018-07-25T04:29:19.332Z,2748.00
2018-07-25T04:30:19.294Z,2836.00
2018-07-25T04:31:19.259Z,2928.00
2018-07-25T04:32:19.247Z,3004.00
2018-07-25T04:33:19.191Z,3084.00
2018-07-25T04:34:19.158Z,3160.00
2018-07-25T04:35:19.119Z,3236.00
2018-07-25T04:36:19.086Z,3304.00
2018-07-25T04:37:19.039Z,3376.00
2018-07-25T04:38:19.025Z,3444.00
2018-07-25T04:39:18.973Z,3524.00
2018-07-25T04:40:18.941Z,3596.00
2018-07-25T04:41:18.893Z,3676.00
2018-07-25T04:42:18.856Z,3748.00
2018-07-25T04:43:18.846Z,3828.00
2018-07-25T04:44:18.783Z,3908.00
2018-07-25T04:45:18.756Z,3988.00
2018-07-25T04:46:18.805Z,4068.00
2018-07-25T04:47:18.679Z,4152.00
2018-07-25T04:48:18.682Z,4224.00
2018-07-25T04:49:18.602Z,4304.00
2018-07-25T04:50:18.568Z,4384.00
2018-07-25T04:51:18.536Z,4464.00
2018-07-25T04:52:18.497Z,4684.00
2018-07-25T04:53:18.467Z,5172.00
2018-07-25T04:54:18.457Z,5724.00
2018-07-25T04:55:18.387Z,6268.00
2018-07-25T04:56:18.346Z,6668.00
2018-07-25T04:57:18.322Z,6804.00
2018-07-25T04:58:18.311Z,6908.00
2018-07-25T04:59:18.246Z,7068.00
2018-07-25T05:00:18.210Z,7252.00
2018-07-25T05:01:18.171Z,7448.00
2018-07-25T05:02:18.136Z,7656.00
2018-07-25T05:03:18.097Z,7800.00
2018-07-25T05:04:18.084Z,8012.00
2018-07-25T05:05:18.031Z,8236.00
2018-07-25T05:06:17.998Z,8356.00
2018-07-25T05:07:17.964Z,8364.00
2018-07-25T05:08:17.955Z,8464.00
2018-07-25T05:09:17.913Z,8612.00
2018-07-25T05:10:17.851Z,8768.00
2018-07-25T05:11:17.820Z,8956.00
2018-07-25T05:12:17.788Z,9152.00
2018-07-25T05:13:17.750Z,9224.00
2018-07-25T05:14:28.628Z,9264.00
2018-07-25T05:15:17.685Z,9356.00
2018-07-25T05:16:17.649Z,9472.00
2018-07-25T05:17:17.612Z,9576.00
2018-07-25T05:18:17.583Z,9748.00
2018-07-25T05:19:17.539Z,9948.00
2018-07-25T05:20:17.529Z,10112.00
2018-07-25T05:21:17.515Z,10144.00
2018-07-25T05:22:17.438Z,10216.00
2018-07-25T05:23:17.478Z,10356.00
2018-07-25T05:24:17.378Z,10488.00
2018-07-25T05:25:17.360Z,10580.00
2018-07-25T05:26:17.306Z,10664.00
2018-07-25T05:27:17.277Z,10792.00
2018-07-25T05:28:17.246Z,10964.00
2018-07-25T05:29:17.211Z,11112.00
2018-07-25T05:30:17.257Z,11432.00
2018-07-25T05:31:17.136Z,13072.00
2018-07-25T05:32:17.112Z,15424.00
2018-07-25T05:33:17.076Z,16832.00
2018-07-25T05:34:17.038Z,16896.00
2018-07-25T05:35:17.035Z,16192.00
2018-07-25T05:36:16.985Z,15712.00
2018-07-25T05:37:16.945Z,15808.00
2018-07-25T05:38:16.950Z,16032.00
2018-07-25T05:39:16.874Z,16224.00
2018-07-25T05:40:16.862Z,16576.00
2018-07-25T05:41:16.819Z,16736.00
2018-07-25T05:42:16.783Z,17024.00
2018-07-25T05:43:16.746Z,17184.00
2018-07-25T05:44:16.712Z,17376.00
2018-07-25T05:45:16.703Z,17632.00
2018-07-25T05:46:16.649Z,17984.00
2018-07-25T05:47:16.627Z,18432.00
2018-07-25T05:48:16.595Z,18688.00
2018-07-25T05:49:16.612Z,18688.00
2018-07-25T05:50:16.555Z,18592.00
2018-07-25T05:51:16.489Z,18400.00
2018-07-25T05:52:16.457Z,18080.00
2018-07-25T05:53:16.426Z,17888.00
2018-07-25T05:54:16.395Z,18336.00
2018-07-25T05:55:16.370Z,19328.00
2018-07-25T05:56:16.362Z,20000.00
2018-07-25T05:57:16.300Z,20352.00
2018-07-25T05:58:16.267Z,20576.00
2018-07-25T05:59:16.244Z,20768.00
2018-07-25T06:00:16.213Z,20928.00
2018-07-25T06:01:16.207Z,21184.00
2018-07-25T06:02:16.148Z,21408.00
2018-07-25T06:03:16.172Z,21568.00
2018-07-25T06:04:16.101Z,21664.00
2018-07-25T06:05:16.051Z,21888.00
2018-07-25T06:06:16.101Z,22208.00
2018-07-25T06:07:16.008Z,22496.00
2018-07-25T06:08:15.970Z,22656.00
2018-07-25T06:09:15.932Z,22752.00
2018-07-25T06:10:15.904Z,22944.00
2018-07-25T06:11:15.865Z,23232.00
2018-07-25T06:12:15.853Z,23360.00
2018-07-25T06:13:15.825Z,23072.00
2018-07-25T06:14:15.798Z,22816.00
2018-07-25T06:15:15.748Z,22848.00
2018-07-25T06:16:15.717Z,23168.00
2018-07-25T06:17:15.707Z,23584.00
2018-07-25T06:18:15.647Z,24320.00
2018-07-25T06:19:15.621Z,24672.00
2018-07-25T06:20:15.598Z,24704.00
2018-07-25T06:21:15.567Z,24544.00
2018-07-25T06:22:15.536Z,24320.00
2018-07-25T06:23:15.519Z,24960.00
2018-07-25T06:24:15.467Z,25856.00
2018-07-25T06:25:15.435Z,26048.00
2018-07-25T06:26:15.424Z,25600.00
2018-07-25T06:27:15.379Z,25568.00
2018-07-25T06:28:15.372Z,25952.00
2018-07-25T06:29:15.318Z,25536.00
2018-07-25T06:30:15.282Z,25952.00
2018-07-25T06:31:15.325Z,26464.00
2018-07-25T06:32:26.685Z,26144.00
2018-07-25T06:33:15.214Z,26176.00
2018-07-25T06:34:15.214Z,26464.00
2018-07-25T06:35:15.134Z,26400.00
2018-07-25T06:36:15.103Z,26624.00
2018-07-25T06:37:15.080Z,27392.00
2018-07-25T06:38:15.085Z,27584.00
2018-07-25T06:39:15.017Z,27584.00
2018-07-25T06:40:14.987Z,27136.00
2018-07-25T06:41:14.954Z,27456.00
2018-07-25T06:42:14.921Z,27488.00
2018-07-25T06:43:14.923Z,27104.00
2018-07-25T06:44:14.892Z,27584.00
2018-07-25T06:45:14.837Z,27904.00
2018-07-25T06:46:14.806Z,28256.00
2018-07-25T06:47:14.777Z,28064.00
2018-07-25T06:48:14.747Z,28064.00
2018-07-25T06:49:14.749Z,27712.00
2018-07-25T06:50:14.699Z,28384.00
2018-07-25T06:51:14.664Z,28640.00
2018-07-25T06:52:24.719Z,28480.00
2018-07-25T06:53:14.601Z,28576.00
2018-07-25T06:54:14.569Z,28704.00
2018-07-25T06:55:14.571Z,28320.00
2018-07-25T06:56:14.518Z,28160.00
2018-07-25T06:57:14.494Z,28384.00
2018-07-25T06:58:14.451Z,28928.00
2018-07-25T06:59:14.428Z,29600.00
2018-07-25T07:00:14.399Z,29888.00
2018-07-25T07:01:14.393Z,29408.00
2018-07-25T07:02:14.343Z,29248.00
2018-07-25T07:03:14.302Z,29376.00
2018-07-25T07:04:14.278Z,30016.00
2018-07-25T07:05:14.245Z,30720.00
2018-07-25T07:06:14.246Z,30144.00
2018-07-25T07:07:14.198Z,27296.00
2018-07-25T07:08:14.169Z,30528.00
2018-07-25T07:09:14.139Z,30560.00
2018-07-25T07:10:14.110Z,29120.00
2018-07-25T07:11:14.077Z,31328.00
2018-07-25T07:12:14.096Z,32736.00
2018-07-25T07:13:14.027Z,33728.00
2018-07-25T07:14:13.996Z,34016.00
2018-07-25T07:15:14.011Z,34272.00
2018-07-25T07:16:13.957Z,34976.00
2018-07-25T07:17:13.906Z,35008.00
2018-07-25T07:18:13.884Z,34528.00
2018-07-25T07:19:13.855Z,34048.00
2018-07-25T07:20:13.829Z,33728.00
2018-07-25T07:21:13.829Z,33760.00
2018-07-25T07:22:13.772Z,33344.00
2018-07-25T07:23:13.741Z,33216.00
2018-07-25T07:24:13.709Z,33376.00
2018-07-25T07:25:13.681Z,33376.00
2018-07-25T07:26:13.655Z,32864.00
2018-07-25T07:27:13.661Z,33472.00
2018-07-25T07:28:13.603Z,34720.00
2018-07-25T07:29:13.574Z,34624.00
2018-07-25T07:30:13.544Z,34880.00
2018-07-25T07:31:13.520Z,36832.00
2018-07-25T07:32:23.298Z,36544.00
2018-07-25T07:33:13.462Z,36320.00
2018-07-25T07:34:13.431Z,35872.00
2018-07-25T07:35:13.454Z,36032.00
2018-07-25T07:36:13.402Z,35648.00
2018-07-25T07:37:13.411Z,36000.00
2018-07-25T07:38:13.328Z,36032.00
2018-07-25T07:39:13.298Z,36544.00
2018-07-25T07:40:13.275Z,36992.00
2018-07-25T07:41:13.249Z,36768.00
2018-07-25T07:42:13.243Z,36832.00
2018-07-25T07:43:13.192Z,37216.00
2018-07-25T07:44:13.192Z,37664.00
2018-07-25T07:45:13.134Z,37824.00
2018-07-25T07:46:13.104Z,37728.00
2018-07-25T07:47:13.077Z,37632.00
2018-07-25T07:48:13.065Z,37408.00
2018-07-25T07:49:13.026Z,36832.00
2018-07-25T07:50:13.000Z,37504.00
2018-07-25T07:51:12.971Z,37984.00
2018-07-25T07:52:23.312Z,37600.00
2018-07-25T07:53:12.934Z,36928.00
2018-07-25T07:54:12.886Z,36672.00
2018-07-25T07:55:12.870Z,37344.00
2018-07-25T07:56:12.836Z,37856.00
2018-07-25T07:57:12.803Z,37344.00
2018-07-25T07:58:12.807Z,31840.00
2018-07-25T07:59:12.757Z,24384.00
2018-07-25T08:00:12.737Z,24352.00
2018-07-25T08:01:12.702Z,30944.00
2018-07-25T08:02:12.674Z,25120.00
2018-07-25T08:03:12.643Z,37600.00
2018-07-25T08:04:12.640Z,40416.00
2018-07-25T08:05:12.590Z,39488.00
2018-07-25T08:06:12.568Z,39808.00
2018-07-25T08:07:12.539Z,40128.00
2018-07-25T08:08:12.528Z,40128.00
2018-07-25T08:09:12.516Z,39936.00
2018-07-25T08:10:12.461Z,39008.00
2018-07-25T08:11:22.851Z,38272.00
2018-07-25T08:12:12.406Z,38720.00
2018-07-25T08:13:12.373Z,39328.00
2018-07-25T08:14:12.370Z,39776.00
2018-07-25T08:15:12.319Z,40448.00
2018-07-25T08:16:12.291Z,41152.00
2018-07-25T08:17:12.278Z,41120.00
2018-07-25T08:18:12.249Z,41856.00
2018-07-25T08:19:12.252Z,42304.00
2018-07-25T08:20:12.220Z,41920.00
2018-07-25T08:21:12.186Z,42624.00
2018-07-25T08:22:12.133Z,42944.00
2018-07-25T08:23:12.111Z,42176.00
2018-07-25T08:24:12.081Z,42144.00
2018-07-25T08:25:12.081Z,42272.00
2018-07-25T08:26:12.042Z,42080.00
2018-07-25T08:27:12.000Z,41952.00
2018-07-25T08:28:11.979Z,42272.00
2018-07-25T08:29:11.958Z,41952.00
2018-07-25T08:30:11.951Z,41312.00
2018-07-25T08:31:22.385Z,42496.00
2018-07-25T08:32:11.873Z,43136.00
2018-07-25T08:33:11.844Z,42400.00
2018-07-25T08:34:11.823Z,42976.00
2018-07-25T08:35:11.825Z,42112.00
2018-07-25T08:36:11.776Z,27648.00
2018-07-25T08:37:11.753Z,23424.00
2018-07-25T08:38:11.724Z,22016.00
2018-07-25T08:39:11.693Z,27424.00
2018-07-25T08:40:11.670Z,41632.00
2018-07-25T08:41:11.737Z,39616.00
2018-07-25T08:42:11.622Z,45120.00
2018-07-25T08:43:11.592Z,44512.00
2018-07-25T08:44:11.566Z,44448.00
2018-07-25T08:45:11.537Z,44608.00
2018-07-25T08:46:11.546Z,42560.00
2018-07-25T08:47:11.492Z,43520.00
2018-07-25T08:48:11.651Z,41344.00
2018-07-25T08:49:11.445Z,39840.00
2018-07-25T08:50:21.440Z,42816.00
2018-07-25T08:51:11.413Z,42912.00
2018-07-25T08:52:11.360Z,42560.00
2018-07-25T08:53:11.339Z,41408.00
2018-07-25T08:54:11.317Z,42176.00
2018-07-25T08:55:11.293Z,32992.00
2018-07-25T08:56:11.261Z,37440.00
2018-07-25T08:57:11.262Z,24864.00
2018-07-25T08:58:11.220Z,36288.00
2018-07-25T08:59:11.192Z,37856.00
2018-07-25T09:00:11.170Z,41472.00
2018-07-25T09:01:11.139Z,39264.00
2018-07-25T09:02:11.160Z,42976.00
2018-07-25T09:03:11.087Z,44416.00
2018-07-25T09:04:11.064Z,45344.00
2018-07-25T09:05:11.051Z,48320.00
2018-07-25T09:06:11.020Z,48640.00
2018-07-25T09:07:11.020Z,47968.00
2018-07-25T09:08:10.975Z,46560.00
2018-07-25T09:09:20.987Z,46592.00
2018-07-25T09:10:10.923Z,47936.00
2018-07-25T09:11:10.901Z,48416.00
2018-07-25T09:12:10.865Z,47712.00
2018-07-25T09:13:10.943Z,48320.00
2018-07-25T09:14:10.819Z,48032.00
2018-07-25T09:15:10.807Z,48384.00
2018-07-25T09:16:10.784Z,48544.00
2018-07-25T09:17:10.756Z,48512.00
2018-07-25T09:18:10.789Z,47936.00
2018-07-25T09:19:10.710Z,47104.00
2018-07-25T09:20:10.678Z,46400.00
2018-07-25T09:21:10.655Z,46688.00
2018-07-25T09:22:10.630Z,46272.00
2018-07-25T09:23:10.643Z,45696.00
2018-07-25T09:24:10.598Z,46176.00
2018-07-25T09:25:10.613Z,44864.00
2018-07-25T09:26:10.537Z,44224.00
2018-07-25T09:27:10.525Z,43968.00
2018-07-25T09:28:10.499Z,43904.00
2018-07-25T09:29:10.501Z,44992.00
2018-07-25T09:30:10.455Z,47104.00
2018-07-25T09:31:10.430Z,47264.00
2018-07-25T09:32:10.403Z,47008.00
2018-07-25T09:33:10.382Z,47392.00
2018-07-25T09:34:10.442Z,47456.00
2018-07-25T09:35:10.342Z,48576.00
2018-07-25T09:36:10.330Z,48320.00
2018-07-25T09:37:10.300Z,48000.00
2018-07-25T09:38:10.276Z,47488.00
2018-07-25T09:39:10.281Z,48960.00
2018-07-25T09:40:10.227Z,50208.00
2018-07-25T09:41:10.215Z,51776.00
2018-07-25T09:42:10.192Z,51840.00
2018-07-25T09:43:18.524Z,52480.00
2018-07-25T09:44:10.139Z,52416.00
2018-07-25T09:45:10.143Z,52928.00
2018-07-25T09:46:10.106Z,52320.00
2018-07-25T09:47:10.233Z,51424.00
2018-07-25T09:48:10.058Z,51232.00
2018-07-25T09:49:10.034Z,51200.00
2018-07-25T09:50:10.036Z,52096.00
2018-07-25T09:51:09.993Z,52288.00
2018-07-25T09:52:09.969Z,52512.00
2018-07-25T09:53:10.084Z,53312.00
2018-07-25T09:54:09.938Z,53376.00
2018-07-25T09:55:09.942Z,53728.00
2018-07-25T09:56:09.887Z,54112.00
2018-07-25T09:57:09.873Z,53632.00
2018-07-25T09:58:09.854Z,53600.00
2018-07-25T09:59:09.854Z,52928.00
2018-07-25T10:00:09.809Z,51904.00
2018-07-25T10:01:09.884Z,51008.00
2018-07-25T10:02:20.061Z,51072.00
2018-07-25T10:03:09.745Z,49792.00
2018-07-25T10:04:09.731Z,50016.00
2018-07-25T10:05:09.706Z,50176.00
2018-07-25T10:06:09.715Z,50816.00
2018-07-25T10:07:09.725Z,51520.00
2018-07-25T10:08:09.640Z,52000.00
2018-07-25T10:09:09.625Z,51680.00
2018-07-25T10:10:09.623Z,51904.00
2018-07-25T10:11:09.608Z,51360.00
2018-07-25T10:12:09.556Z,52320.00
2018-07-25T10:13:09.535Z,52704.00
2018-07-25T10:14:09.514Z,53472.00
2018-07-25T10:15:09.572Z,53152.00
2018-07-25T10:16:09.483Z,52992.00
2018-07-25T10:17:09.491Z,52608.00
2018-07-25T10:18:09.446Z,52032.00
2018-07-25T10:19:09.417Z,52480.00
2018-07-25T10:20:09.394Z,52288.00
2018-07-25T10:21:17.609Z,52512.00
2018-07-25T10:22:09.399Z,52128.00
2018-07-25T10:23:09.344Z,51136.00
2018-07-25T10:24:09.312Z,51104.00
2018-07-25T10:25:09.293Z,50944.00
2018-07-25T10:26:09.273Z,50880.00
2018-07-25T10:27:09.329Z,50752.00
2018-07-25T10:28:09.232Z,51168.00
2018-07-25T10:29:09.204Z,46208.00
2018-07-25T10:30:09.188Z,45184.00
2018-07-25T10:31:09.161Z,46912.00
2018-07-25T10:32:09.146Z,50912.00
2018-07-25T10:33:09.167Z,52768.00
2018-07-25T10:34:09.114Z,54432.00
2018-07-25T10:35:09.110Z,54912.00
2018-07-25T10:36:09.064Z,55072.00
2018-07-25T10:37:09.043Z,53888.00
2018-07-25T10:38:09.040Z,54208.00
2018-07-25T10:39:09.060Z,52576.00
2018-07-25T10:40:08.981Z,52704.00
2018-07-25T10:41:19.133Z,51104.00
2018-07-25T10:42:08.934Z,50272.00
2018-07-25T10:43:08.948Z,49984.00
2018-07-25T10:44:08.900Z,50560.00
2018-07-25T10:45:08.884Z,51008.00
2018-07-25T10:46:08.865Z,50784.00
2018-07-25T10:47:08.834Z,44768.00
2018-07-25T10:48:08.813Z,44672.00
2018-07-25T10:49:08.820Z,41088.00
2018-07-25T10:50:08.775Z,53600.00
2018-07-25T10:51:08.760Z,54976.00
2018-07-25T10:52:08.742Z,55936.00
2018-07-25T10:53:08.718Z,56256.00
2018-07-25T10:54:08.722Z,55968.00
2018-07-25T10:55:08.686Z,53888.00
2018-07-25T10:56:08.660Z,51520.00
2018-07-25T10:57:08.645Z,50528.00
2018-07-25T10:58:08.628Z,53632.00
2018-07-25T10:59:08.613Z,52448.00
2018-07-25T11:00:18.676Z,53376.00
2018-07-25T11:01:08.554Z,53152.00
2018-07-25T11:02:08.548Z,54080.00
2018-07-25T11:03:08.513Z,54592.00
2018-07-25T11:04:08.526Z,54912.00
2018-07-25T11:05:08.464Z,54016.00
2018-07-25T11:06:08.445Z,54624.00
2018-07-25T11:07:08.440Z,53824.00
2018-07-25T11:08:08.406Z,55424.00
2018-07-25T11:09:08.381Z,56384.00
2018-07-25T11:10:08.382Z,57120.00
2018-07-25T11:11:08.333Z,55936.00
2018-07-25T11:12:08.318Z,55840.00
2018-07-25T11:13:08.302Z,55648.00
2018-07-25T11:14:08.280Z,54720.00
2018-07-25T11:15:08.279Z,54240.00
2018-07-25T11:16:08.239Z,54240.00
2018-07-25T11:17:08.213Z,55008.00
2018-07-25T11:18:08.192Z,55424.00
2018-07-25T11:19:08.162Z,56736.00
2018-07-25T11:20:17.745Z,56928.00
2018-07-25T11:21:08.133Z,56768.00
2018-07-25T11:22:08.104Z,56480.00
2018-07-25T11:23:08.164Z,55808.00
2018-07-25T11:24:08.066Z,55904.00
2018-07-25T11:25:08.048Z,56864.00
2018-07-25T11:26:08.043Z,57216.00
2018-07-25T11:27:07.992Z,55776.00
2018-07-25T11:28:07.982Z,54272.00
2018-07-25T11:29:07.953Z,54496.00
2018-07-25T11:30:07.936Z,54816.00
2018-07-25T11:31:07.939Z,54400.00
2018-07-25T11:32:07.894Z,55552.00
2018-07-25T11:33:07.875Z,57536.00
2018-07-25T11:34:07.855Z,58368.00
2018-07-25T11:35:07.824Z,57728.00
2018-07-25T11:36:07.835Z,57888.00
2018-07-25T11:37:07.792Z,57216.00
2018-07-25T11:38:07.774Z,57152.00
2018-07-25T11:39:07.743Z,56704.00
2018-07-25T11:40:17.756Z,56576.00
2018-07-25T11:41:07.704Z,55616.00
2018-07-25T11:42:07.704Z,55936.00
2018-07-25T11:43:07.663Z,56608.00
2018-07-25T11:44:07.635Z,56608.00
2018-07-25T11:45:07.608Z,56960.00
2018-07-25T11:46:07.588Z,57184.00
2018-07-25T11:47:07.588Z,56768.00
2018-07-25T11:48:07.544Z,56672.00
2018-07-25T11:49:07.548Z,56544.00
2018-07-25T11:50:07.538Z,57536.00
2018-07-25T11:51:07.487Z,57472.00
2018-07-25T11:52:07.483Z,57472.00
2018-07-25T11:53:07.444Z,57696.00
2018-07-25T11:54:07.428Z,57632.00
2018-07-25T11:55:07.402Z,57696.00
2018-07-25T11:56:07.386Z,56608.00
2018-07-25T11:57:07.391Z,57888.00
2018-07-25T11:58:07.332Z,58784.00
2018-07-25T11:59:07.313Z,58560.00
2018-07-25T12:00:07.287Z,57632.00
2018-07-25T12:01:07.336Z,58080.00
2018-07-25T12:02:07.268Z,57856.00
2018-07-25T12:03:07.253Z,57824.00
2018-07-25T12:04:07.211Z,56896.00
2018-07-25T12:05:07.182Z,56736.00
2018-07-25T12:06:07.168Z,56032.00
2018-07-25T12:07:07.152Z,55904.00
2018-07-25T12:08:07.167Z,56448.00
2018-07-25T12:09:07.109Z,57888.00
2018-07-25T12:10:07.077Z,59488.00
2018-07-25T12:11:07.065Z,57824.00
2018-07-25T12:12:07.036Z,54464.00
2018-07-25T12:13:07.053Z,51168.00